createdAt,value
2023-05-23T00:01:54.298Z,69.62
2023-05-23T00:06:55.765Z,70.28
2023-05-23T00:11:56.852Z,70.43
2023-05-23T00:16:58.833Z,74.25
2023-05-23T00:21:59.747Z,78.20
2023-05-23T00:27:01.297Z,68.22
2023-05-23T00:32:03.331Z,69.87
2023-05-23T00:37:04.271Z,66.90
2023-05-23T00:42:05.893Z,66.03
2023-05-23T00:47:07.292Z,61.63
2023-05-23T00:52:08.769Z,65.65
2023-05-23T00:57:10.521Z,57.83
2023-05-23T01:02:12.082Z,53.95
2023-05-23T01:07:13.361Z,51.83
2023-05-23T01:12:46.192Z,51.40
2023-05-23T01:20:55.200Z,53.97
2023-05-23T01:29:09.661Z,56.63
2023-05-23T01:34:12.900Z,59.67
2023-05-23T01:39:13.845Z,59.53
2023-05-23T01:44:15.412Z,55.53
2023-05-23T01:49:17.950Z,54.53
2023-05-23T01:54:19.188Z,58.28
2023-05-23T01:59:20.365Z,58.65
2023-05-23T02:04:21.352Z,52.75
2023-05-23T02:09:22.292Z,47.53
2023-05-23T02:14:23.206Z,52.62
2023-05-23T02:19:24.101Z,48.03
2023-05-23T02:24:25.196Z,47.97
2023-05-23T02:29:26.064Z,47.58
2023-05-23T02:34:26.971Z,45.00
2023-05-23T02:39:28.070Z,38.60
2023-05-23T02:44:29.558Z,39.17
2023-05-23T02:49:31.172Z,39.20
2023-05-23T02:54:31.976Z,40.92
2023-05-23T02:59:33.624Z,38.38
2023-05-23T03:04:34.447Z,33.53
2023-05-23T03:09:35.446Z,34.40
2023-05-23T03:14:36.221Z,32.05
2023-05-23T03:19:37.201Z,39.17
2023-05-23T03:24:38.181Z,31.37
2023-05-23T03:29:39.152Z,27.62
2023-05-23T03:34:39.969Z,26.73
2023-05-23T03:39:40.873Z,28.17
2023-05-23T03:44:41.697Z,26.33
2023-05-23T03:49:44.354Z,25.88
2023-05-23T03:54:45.970Z,28.42
2023-05-23T03:59:46.966Z,21.65
2023-05-23T04:04:48.921Z,22.52
2023-05-23T04:09:50.093Z,23.67
2023-05-23T04:14:52.186Z,26.50
2023-05-23T04:19:53.547Z,30.15
2023-05-23T04:24:54.969Z,29.75
2023-05-23T04:29:57.482Z,31.50
2023-05-23T04:35:01.482Z,37.78
2023-05-23T04:40:03.993Z,37.83
2023-05-23T04:46:26.572Z,52.40
2023-05-23T04:54:05.217Z,46.15
2023-05-23T04:59:08.099Z,41.63
2023-05-23T05:09:10.911Z,41.15
2023-05-23T05:14:12.098Z,35.70
2023-05-23T05:19:13.438Z,22.25
2023-05-23T05:24:15.005Z,20.08
2023-05-23T05:29:16.538Z,17.55
2023-05-23T05:34:18.944Z,11.00
2023-05-23T05:39:20.331Z,11.52
2023-05-23T05:44:22.389Z,15.40
2023-05-23T05:49:24.910Z,9.95
2023-05-23T05:54:25.932Z,11.63
2023-05-23T05:59:27.282Z,13.05
2023-05-23T06:04:29.227Z,12.43
2023-05-23T06:09:31.424Z,11.40
2023-05-23T06:14:32.619Z,15.40
2023-05-23T06:19:34.433Z,14.85
2023-05-23T06:24:35.527Z,12.68
2023-05-23T06:29:38.338Z,13.05
2023-05-23T06:34:39.150Z,14.73
2023-05-23T06:39:40.773Z,10.95
2023-05-23T06:44:41.753Z,8.90
2023-05-23T06:49:45.684Z,7.53
2023-05-23T06:54:46.652Z,10.60
2023-05-23T06:59:48.112Z,9.18
2023-05-23T07:04:49.452Z,9.20
2023-05-23T07:09:54.332Z,7.35
2023-05-23T07:14:56.605Z,8.83
2023-05-23T07:25:01.386Z,10.10
2023-05-23T07:30:09.072Z,10.77
2023-05-23T07:35:10.966Z,9.90
2023-05-23T07:40:11.835Z,12.48
2023-05-23T07:45:13.735Z,12.15
2023-05-23T07:50:16.962Z,10.38
2023-05-23T07:55:18.285Z,9.07
2023-05-23T08:00:20.175Z,8.63
2023-05-23T08:05:23.911Z,11.18
2023-05-23T08:10:28.903Z,10.48
2023-05-23T08:15:36.608Z,10.00
2023-05-23T08:20:43.653Z,10.32
2023-05-23T08:25:44.941Z,9.70
2023-05-23T08:30:46.211Z,12.07
2023-05-23T08:35:47.577Z,12.45
2023-05-23T08:40:53.611Z,18.60
2023-05-23T08:45:56.695Z,11.50
2023-05-23T08:51:02.237Z,13.80
2023-05-23T08:56:03.832Z,14.57
2023-05-23T09:01:13.737Z,16.77
2023-05-23T09:06:17.454Z,16.52
2023-05-23T09:11:21.164Z,18.27
2023-05-23T09:16:22.969Z,16.85
2023-05-23T09:21:31.221Z,20.10
2023-05-23T09:26:49.803Z,18.58
2023-05-23T09:31:51.051Z,18.00
2023-05-23T09:36:54.737Z,21.12
2023-05-23T09:41:58.678Z,19.95
2023-05-23T09:47:06.206Z,19.60
2023-05-23T09:52:07.120Z,17.27
2023-05-23T09:57:10.473Z,20.05
2023-05-23T10:07:15.091Z,13.98
2023-05-23T10:13:40.968Z,12.05
2023-05-23T10:18:51.353Z,16.30
2023-05-23T10:23:52.586Z,16.90
2023-05-23T10:28:54.499Z,19.33
2023-05-23T10:34:07.931Z,23.98
2023-05-23T10:39:16.283Z,28.90
2023-05-23T10:44:28.429Z,25.73
2023-05-23T10:49:51.648Z,25.50
2023-05-23T10:54:54.131Z,30.80
2023-05-23T10:59:56.532Z,29.73
2023-05-23T11:05:21.629Z,24.70
2023-05-23T11:10:22.545Z,27.30
2023-05-23T11:15:23.473Z,25.70
2023-05-23T11:20:26.600Z,24.05
2023-05-23T11:25:52.984Z,22.27
2023-05-23T11:30:56.623Z,21.08
2023-05-23T11:35:57.494Z,24.05
2023-05-23T11:40:59.685Z,20.92
2023-05-23T11:46:08.164Z,26.53
2023-05-23T11:51:09.200Z,21.00
2023-05-23T11:56:10.056Z,21.70
2023-05-23T12:01:12.179Z,20.52
2023-05-23T12:06:18.251Z,18.23
2023-05-23T12:11:19.127Z,18.92
2023-05-23T12:16:20.471Z,20.15
2023-05-23T12:21:25.164Z,19.90
2023-05-23T12:26:26.001Z,17.67
2023-05-23T12:31:27.099Z,19.83
2023-05-23T12:36:31.996Z,21.67
2023-05-23T12:41:33.194Z,20.05
2023-05-23T12:46:34.617Z,26.17
2023-05-23T12:51:35.984Z,20.80
2023-05-23T12:56:36.760Z,17.05
2023-05-23T13:01:37.917Z,24.75
2023-05-23T13:06:38.807Z,19.27
2023-05-23T13:11:40.674Z,20.62
2023-05-23T13:16:41.524Z,21.65
2023-05-23T13:21:42.769Z,22.75
2023-05-23T13:26:43.605Z,20.75
2023-05-23T13:31:44.872Z,20.85
2023-05-23T13:36:45.793Z,21.27
2023-05-23T13:41:46.983Z,21.33
2023-05-23T13:46:47.842Z,23.67
2023-05-23T13:51:49.420Z,22.62
2023-05-23T13:56:50.247Z,25.25
2023-05-23T14:01:51.091Z,31.27
2023-05-23T14:06:52.658Z,32.95
2023-05-23T14:11:53.504Z,38.22
2023-05-23T14:16:54.319Z,32.97
2023-05-23T14:21:55.401Z,33.22
2023-05-23T14:26:56.806Z,28.38
2023-05-23T14:31:59.992Z,25.55
2023-05-23T14:37:00.938Z,27.83
2023-05-23T14:42:02.047Z,26.50
2023-05-23T14:47:03.268Z,21.17
2023-05-23T14:52:04.333Z,20.15
2023-05-23T14:57:05.142Z,23.42
2023-05-23T15:02:07.502Z,22.40
2023-05-23T15:07:08.847Z,19.83
2023-05-23T15:12:09.745Z,21.87
2023-05-23T15:17:12.243Z,20.67
2023-05-23T15:22:25.801Z,20.80
2023-05-23T15:27:37.749Z,17.25
2023-05-23T15:32:38.616Z,20.35
2023-05-23T15:37:40.276Z,23.00
2023-05-23T15:42:41.083Z,19.90
2023-05-23T15:47:42.008Z,22.62
2023-05-23T15:52:42.944Z,20.92
2023-05-23T15:57:43.808Z,21.05
2023-05-23T16:02:44.795Z,22.80
2023-05-23T16:07:45.731Z,21.42
2023-05-23T16:12:46.607Z,23.77
2023-05-23T16:17:47.472Z,20.08
2023-05-23T16:22:48.506Z,22.37
2023-05-23T16:27:49.658Z,18.15
2023-05-23T16:32:50.506Z,19.40
2023-05-23T16:37:51.812Z,23.85
2023-05-23T16:42:52.641Z,18.58
2023-05-23T16:47:53.578Z,21.55
2023-05-23T16:52:54.702Z,19.90
2023-05-23T16:57:55.722Z,23.05
2023-05-23T17:02:56.625Z,21.42
2023-05-23T17:07:57.646Z,22.48
2023-05-23T17:12:58.418Z,24.63
2023-05-23T17:17:59.397Z,24.02
2023-05-23T17:23:00.333Z,22.23
2023-05-23T17:28:01.268Z,23.85
2023-05-23T17:33:02.536Z,21.75
2023-05-23T17:38:03.917Z,22.52
2023-05-23T17:43:04.712Z,18.67
2023-05-23T17:48:05.581Z,20.73
2023-05-23T17:53:07.035Z,23.95
2023-05-23T17:58:08.279Z,21.10
2023-05-23T18:03:09.126Z,20.15
2023-05-23T18:08:10.153Z,23.62
2023-05-23T18:13:11.037Z,23.87
2023-05-23T18:18:12.004Z,18.02
2023-05-23T18:23:13.179Z,20.27
2023-05-23T18:28:13.961Z,16.77
2023-05-23T18:33:15.262Z,18.92
2023-05-23T18:38:16.467Z,18.92
2023-05-23T18:43:17.698Z,17.87
2023-05-23T18:48:19.094Z,19.80
2023-05-23T18:53:20.130Z,22.60
2023-05-23T18:58:20.973Z,19.52
2023-05-23T19:03:21.954Z,19.92
2023-05-23T19:08:22.962Z,18.35
2023-05-23T19:13:23.927Z,18.77
2023-05-23T19:18:25.275Z,20.15
2023-05-23T19:23:27.312Z,16.65
2023-05-23T19:28:28.104Z,17.62
2023-05-23T19:33:28.997Z,18.62
2023-05-23T19:38:29.841Z,16.58
2023-05-23T19:43:30.718Z,21.95
2023-05-23T19:48:31.565Z,16.00
2023-05-23T19:53:32.595Z,19.42
2023-05-23T19:58:35.514Z,25.62
2023-05-23T20:03:36.865Z,20.90
2023-05-23T20:08:37.736Z,19.05
2023-05-23T20:13:38.625Z,18.98
2023-05-23T20:18:41.886Z,17.02
2023-05-23T20:23:44.565Z,19.23
2023-05-23T20:28:45.398Z,18.35
2023-05-23T20:33:46.292Z,15.63
2023-05-23T20:38:47.158Z,20.55
2023-05-23T20:43:48.273Z,13.80
2023-05-23T20:48:49.136Z,17.12
2023-05-23T20:53:50.938Z,21.77
2023-05-23T20:58:51.934Z,20.35
2023-05-23T21:03:53.928Z,16.83
2023-05-23T21:08:54.730Z,21.67
2023-05-23T21:13:56.882Z,17.02
2023-05-23T21:18:57.791Z,21.42
2023-05-23T21:23:58.775Z,23.30
2023-05-23T21:28:59.601Z,15.07
2023-05-23T21:34:11.060Z,19.80
2023-05-23T21:39:19.877Z,15.32
2023-05-23T21:44:20.757Z,15.60
2023-05-23T21:49:21.682Z,11.20
2023-05-23T21:54:22.608Z,12.25
2023-05-23T21:59:23.548Z,16.35
2023-05-23T22:04:24.780Z,17.37
2023-05-23T22:09:25.793Z,14.68
2023-05-23T22:14:26.745Z,14.77
2023-05-23T22:19:28.648Z,15.35
2023-05-23T22:24:30.409Z,13.20
2023-05-23T22:29:31.250Z,10.45
2023-05-23T22:34:32.178Z,12.70
2023-05-23T22:39:33.013Z,18.27
2023-05-23T22:44:33.843Z,11.68
2023-05-23T22:49:35.606Z,14.15
2023-05-23T22:54:36.554Z,17.00
2023-05-23T22:59:37.442Z,15.00
2023-05-23T23:04:40.864Z,12.20
2023-05-23T23:09:41.729Z,15.35
2023-05-23T23:14:42.560Z,15.10
2023-05-23T23:19:43.368Z,14.32
2023-05-23T23:24:46.688Z,9.80
2023-05-23T23:34:48.528Z,14.77
2023-05-23T23:39:49.405Z,10.70
2023-05-23T23:44:50.366Z,12.05
2023-05-23T23:49:51.175Z,10.40
2023-05-23T23:54:52.361Z,17.27
2023-05-23T23:59:53.170Z,16.77
